sensor_id;sensor_type;location;lat;lon;timestamp;pressure;altitude;pressure_sealevel;temperature;humidity
62791;BME280;48830;53.426;10.300;2023-04-07T00:01:42;101788.66;;;6.20;69.55
62791;BME280;48830;53.426;10.300;2023-04-07T00:04:08;101780.47;;;6.27;69.39
62791;BME280;48830;53.426;10.300;2023-04-07T00:06:33;101782.41;;;6.31;69.33
62791;BME280;48830;53.426;10.300;2023-04-07T00:08:59;101783.97;;;6.29;69.40
62791;BME280;48830;53.426;10.300;2023-04-07T00:11:24;101777.41;;;6.16;69.50
62791;BME280;48830;53.426;10.300;2023-04-07T00:13:50;101776.66;;;6.19;69.57
62791;BME280;48830;53.426;10.300;2023-04-07T00:16:15;101779.09;;;6.16;69.91
62791;BME280;48830;53.426;10.300;2023-04-07T00:18:41;101777.25;;;6.13;69.77
62791;BME280;48830;53.426;10.300;2023-04-07T00:21:07;101784.53;;;6.05;69.94
62791;BME280;48830;53.426;10.300;2023-04-07T00:23:32;101784.06;;;5.96;70.36
62791;BME280;48830;53.426;10.300;2023-04-07T00:25:58;101776.81;;;6.04;70.08
62791;BME280;48830;53.426;10.300;2023-04-07T00:28:23;101778.09;;;5.96;70.11
62791;BME280;48830;53.426;10.300;2023-04-07T00:30:48;101775.06;;;6.03;69.83
62791;BME280;48830;53.426;10.300;2023-04-07T00:33:14;101772.94;;;5.94;70.38
62791;BME280;48830;53.426;10.300;2023-04-07T00:35:40;101782.19;;;5.92;70.54
62791;BME280;48830;53.426;10.300;2023-04-07T00:38:05;101775.16;;;5.88;71.42
62791;BME280;48830;53.426;10.300;2023-04-07T00:40:31;101780.06;;;5.85;70.57
62791;BME280;48830;53.426;10.300;2023-04-07T00:42:56;101770.22;;;5.91;70.29
62791;BME280;48830;53.426;10.300;2023-04-07T00:45:22;101770.50;;;5.81;71.22
62791;BME280;48830;53.426;10.300;2023-04-07T00:47:47;101771.47;;;5.83;71.13
62791;BME280;48830;53.426;10.300;2023-04-07T00:50:13;101768.13;;;5.84;70.82
62791;BME280;48830;53.426;10.300;2023-04-07T00:52:38;101772.13;;;5.79;71.30
62791;BME280;48830;53.426;10.300;2023-04-07T00:55:04;101772.13;;;5.79;71.08
62791;BME280;48830;53.426;10.300;2023-04-07T00:57:30;101772.75;;;5.75;71.16
62791;BME280;48830;53.426;10.300;2023-04-07T00:59:56;101769.09;;;5.70;72.04
62791;BME280;48830;53.426;10.300;2023-04-07T01:02:31;101775.31;;;5.75;71.30
62791;BME280;48830;53.426;10.300;2023-04-07T01:05:08;101773.88;;;5.64;72.14
62791;BME280;48830;53.426;10.300;2023-04-07T01:07:45;101772.16;;;5.63;71.81
62791;BME280;48830;53.426;10.300;2023-04-07T01:10:17;101778.19;;;5.65;72.34
62791;BME280;48830;53.426;10.300;2023-04-07T01:15:59;101772.78;;;5.59;72.44
62791;BME280;48830;53.426;10.300;2023-04-07T01:18:31;101772.78;;;5.59;72.78
62791;BME280;48830;53.426;10.300;2023-04-07T01:21:08;101772.97;;;5.45;73.07
62791;BME280;48830;53.426;10.300;2023-04-07T01:23:54;101770.09;;;5.39;73.62
62791;BME280;48830;53.426;10.300;2023-04-07T01:26:28;101770.53;;;5.48;73.20
62791;BME280;48830;53.426;10.300;2023-04-07T01:29:10;101765.44;;;5.48;73.55
62791;BME280;48830;53.426;10.300;2023-04-07T01:31:39;101772.22;;;5.48;73.46
62791;BME280;48830;53.426;10.300;2023-04-07T01:34:11;101768.34;;;5.38;74.05
62791;BME280;48830;53.426;10.300;2023-04-07T01:36:37;101772.78;;;5.42;73.46
62791;BME280;48830;53.426;10.300;2023-04-07T01:39:03;101771.66;;;5.21;73.99
62791;BME280;48830;53.426;10.300;2023-04-07T01:41:29;101773.91;;;5.15;74.89
62791;BME280;48830;53.426;10.300;2023-04-07T01:43:55;101775.00;;;5.20;74.40
62791;BME280;48830;53.426;10.300;2023-04-07T01:46:22;101779.97;;;5.17;75.41
62791;BME280;48830;53.426;10.300;2023-04-07T01:48:49;101773.59;;;5.25;74.06
62791;BME280;48830;53.426;10.300;2023-04-07T01:51:16;101775.09;;;5.21;74.32
62791;BME280;48830;53.426;10.300;2023-04-07T01:53:44;101775.75;;;5.17;74.86
62791;BME280;48830;53.426;10.300;2023-04-07T01:56:11;101774.53;;;5.11;75.40
62791;BME280;48830;53.426;10.300;2023-04-07T01:58:36;101768.97;;;5.18;74.36
62791;BME280;48830;53.426;10.300;2023-04-07T02:01:04;101768.47;;;4.92;75.76
62791;BME280;48830;53.426;10.300;2023-04-07T02:03:41;101766.16;;;4.97;75.34
62791;BME280;48830;53.426;10.300;2023-04-07T02:06:09;101772.78;;;5.10;75.14
62791;BME280;48830;53.426;10.300;2023-04-07T02:08:41;101766.22;;;4.98;74.85
62791;BME280;48830;53.426;10.300;2023-04-07T02:11:12;101766.16;;;4.97;74.79
62791;BME280;48830;53.426;10.300;2023-04-07T02:13:41;101770.59;;;4.85;76.25
62791;BME280;48830;53.426;10.300;2023-04-07T02:16:10;101765.66;;;4.88;75.09
62791;BME280;48830;53.426;10.300;2023-04-07T02:18:37;101763.19;;;4.89;75.65
62791;BME280;48830;53.426;10.300;2023-04-07T02:21:03;101768.59;;;4.79;75.70
62791;BME280;48830;53.426;10.300;2023-04-07T02:23:28;101762.59;;;4.79;75.50
62791;BME280;48830;53.426;10.300;2023-04-07T02:25:56;101764.78;;;4.87;76.10
62791;BME280;48830;53.426;10.300;2023-04-07T02:28:22;101766.38;;;4.85;75.11
62791;BME280;48830;53.426;10.300;2023-04-07T02:30:47;101770.19;;;4.93;74.89
62791;BME280;48830;53.426;10.300;2023-04-07T02:33:13;101767.00;;;4.81;75.21
62791;BME280;48830;53.426;10.300;2023-04-07T02:35:40;101771.16;;;4.79;75.46
62791;BME280;48830;53.426;10.300;2023-04-07T02:38:05;101771.47;;;4.85;75.15
62791;BME280;48830;53.426;10.300;2023-04-07T02:40:34;101777.81;;;4.77;75.84
62791;BME280;48830;53.426;10.300;2023-04-07T02:43:01;101775.13;;;4.74;75.82
62791;BME280;48830;53.426;10.300;2023-04-07T02:45:26;101781.88;;;4.73;76.01
62791;BME280;48830;53.426;10.300;2023-04-07T02:47:51;101781.94;;;4.75;75.93
62791;BME280;48830;53.426;10.300;2023-04-07T02:50:17;101786.13;;;4.58;77.54
62791;BME280;48830;53.426;10.300;2023-04-07T02:52:42;101773.66;;;4.63;77.17
62791;BME280;48830;53.426;10.300;2023-04-07T02:55:12;101770.13;;;4.61;77.11
62791;BME280;48830;53.426;10.300;2023-04-07T02:57:37;101772.06;;;4.65;77.05
62791;BME280;48830;53.426;10.300;2023-04-07T03:00:08;101782.31;;;4.66;77.08
62791;BME280;48830;53.426;10.300;2023-04-07T03:02:50;101775.41;;;4.64;75.81
62791;BME280;48830;53.426;10.300;2023-04-07T03:05:16;101782.59;;;4.56;76.49
62791;BME280;48830;53.426;10.300;2023-04-07T03:07:42;101782.25;;;4.65;76.60
62791;BME280;48830;53.426;10.300;2023-04-07T03:10:09;101778.38;;;4.57;77.09
62791;BME280;48830;53.426;10.300;2023-04-07T03:12:34;101773.56;;;4.46;78.09
62791;BME280;48830;53.426;10.300;2023-04-07T03:15:00;101779.13;;;4.39;77.66
62791;BME280;48830;53.426;10.300;2023-04-07T03:17:25;101775.97;;;4.43;77.55
62791;BME280;48830;53.426;10.300;2023-04-07T03:19:51;101780.44;;;4.47;77.67
62791;BME280;48830;53.426;10.300;2023-04-07T03:22:18;101782.78;;;4.44;77.50
62791;BME280;48830;53.426;10.300;2023-04-07T03:24:48;101783.75;;;4.46;77.60
62791;BME280;48830;53.426;10.300;2023-04-07T03:27:14;101776.28;;;4.50;76.83
62791;BME280;48830;53.426;10.300;2023-04-07T03:29:44;101778.91;;;4.51;77.28
62791;BME280;48830;53.426;10.300;2023-04-07T03:32:12;101785.34;;;4.44;76.94
62791;BME280;48830;53.426;10.300;2023-04-07T03:34:38;101784.94;;;4.37;77.20
62791;BME280;48830;53.426;10.300;2023-04-07T03:37:03;101788.84;;;4.46;76.66
62791;BME280;48830;53.426;10.300;2023-04-07T03:39:31;101781.59;;;4.38;77.32
62791;BME280;48830;53.426;10.300;2023-04-07T03:41:59;101789.22;;;4.38;76.96
62791;BME280;48830;53.426;10.300;2023-04-07T03:44:28;101790.88;;;4.37;77.91
62791;BME280;48830;53.426;10.300;2023-04-07T03:46:53;101796.59;;;4.33;77.59
62791;BME280;48830;53.426;10.300;2023-04-07T03:49:21;101797.53;;;4.35;77.16
62791;BME280;48830;53.426;10.300;2023-04-07T03:51:49;101799.06;;;4.32;76.97
62791;BME280;48830;53.426;10.300;2023-04-07T03:54:16;101802.94;;;4.25;76.84
62791;BME280;48830;53.426;10.300;2023-04-07T03:56:43;101801.06;;;4.22;76.96
62791;BME280;48830;53.426;10.300;2023-04-07T03:59:09;101804.94;;;4.31;76.71
62791;BME280;48830;53.426;10.300;2023-04-07T04:01:41;101807.38;;;4.29;76.39
62791;BME280;48830;53.426;10.300;2023-04-07T04:04:11;101803.44;;;4.34;76.02
62791;BME280;48830;53.426;10.300;2023-04-07T04:06:37;101816.75;;;4.30;76.28
62791;BME280;48830;53.426;10.300;2023-04-07T04:09:13;101814.59;;;4.36;76.22
62791;BME280;48830;53.426;10.300;2023-04-07T04:11:43;101816.75;;;4.30;75.54
62791;BME280;48830;53.426;10.300;2023-04-07T04:14:09;101820.56;;;4.37;75.86
62791;BME280;48830;53.426;10.300;2023-04-07T04:16:35;101826.59;;;4.24;75.63
62791;BME280;48830;53.426;10.300;2023-04-07T04:19:07;101827.94;;;4.32;75.61
62791;BME280;48830;53.426;10.300;2023-04-07T04:21:33;101826.19;;;4.31;74.96
62791;BME280;48830;53.426;10.300;2023-04-07T04:23:58;101829.34;;;4.27;75.60
62791;BME280;48830;53.426;10.300;2023-04-07T04:26:26;101828.47;;;4.27;74.52
62791;BME280;48830;53.426;10.300;2023-04-07T04:28:56;101835.81;;;4.22;74.55
62791;BME280;48830;53.426;10.300;2023-04-07T04:31:22;101833.53;;;4.27;74.42
62791;BME280;48830;53.426;10.300;2023-04-07T04:33:47;101837.81;;;4.13;76.12
62791;BME280;48830;53.426;10.300;2023-04-07T04:36:12;101835.81;;;4.22;75.11
62791;BME280;48830;53.426;10.300;2023-04-07T04:38:39;101841.59;;;4.19;74.98
62791;BME280;48830;53.426;10.300;2023-04-07T04:41:16;101842.41;;;4.18;74.95
62791;BME280;48830;53.426;10.300;2023-04-07T04:43:43;101842.41;;;4.18;74.80
62791;BME280;48830;53.426;10.300;2023-04-07T04:46:11;101841.44;;;4.16;74.83
62791;BME280;48830;53.426;10.300;2023-04-07T04:48:40;101849.69;;;4.12;75.43
62791;BME280;48830;53.426;10.300;2023-04-07T04:51:06;101846.44;;;4.15;75.35
62791;BME280;48830;53.426;10.300;2023-04-07T04:53:31;101849.34;;;4.21;75.73
62791;BME280;48830;53.426;10.300;2023-04-07T04:55:59;101852.13;;;4.11;75.42
62791;BME280;48830;53.426;10.300;2023-04-07T04:58:38;101855.56;;;4.11;75.15
62791;BME280;48830;53.426;10.300;2023-04-07T05:01:12;101850.75;;;4.16;75.50
62791;BME280;48830;53.426;10.300;2023-04-07T05:03:43;101848.28;;;4.17;75.87
62791;BME280;48830;53.426;10.300;2023-04-07T05:06:15;101854.09;;;4.15;75.32
62791;BME280;48830;53.426;10.300;2023-04-07T05:08:43;101857.78;;;4.20;76.22
62791;BME280;48830;53.426;10.300;2023-04-07T05:11:10;101862.16;;;4.22;75.38
62791;BME280;48830;53.426;10.300;2023-04-07T05:13:36;101871.25;;;4.19;75.61
62791;BME280;48830;53.426;10.300;2023-04-07T05:16:03;101877.34;;;4.21;76.04
62791;BME280;48830;53.426;10.300;2023-04-07T05:18:29;101876.91;;;4.28;76.34
62791;BME280;48830;53.426;10.300;2023-04-07T05:20:56;101871.66;;;4.25;76.16
62791;BME280;48830;53.426;10.300;2023-04-07T05:23:23;101872.69;;;4.29;76.96
62791;BME280;48830;53.426;10.300;2023-04-07T05:25:50;101875.50;;;4.33;76.62
62791;BME280;48830;53.426;10.300;2023-04-07T05:28:17;101886.03;;;4.39;75.45
62791;BME280;48830;53.426;10.300;2023-04-07T05:30:42;101887.25;;;4.46;75.39
62791;BME280;48830;53.426;10.300;2023-04-07T05:33:08;101886.72;;;4.52;75.56
62791;BME280;48830;53.426;10.300;2023-04-07T05:35:45;101888.25;;;4.63;74.99
62791;BME280;48830;53.426;10.300;2023-04-07T05:38:12;101894.91;;;4.76;74.26
62791;BME280;48830;53.426;10.300;2023-04-07T05:40:39;101892.63;;;4.80;73.62
62791;BME280;48830;53.426;10.300;2023-04-07T05:43:08;101895.50;;;4.86;74.01
62791;BME280;48830;53.426;10.300;2023-04-07T05:45:34;101890.56;;;4.89;73.89
62791;BME280;48830;53.426;10.300;2023-04-07T05:47:59;101897.03;;;4.99;74.06
62791;BME280;48830;53.426;10.300;2023-04-07T05:50:33;101904.34;;;5.08;73.84
62791;BME280;48830;53.426;10.300;2023-04-07T05:53:03;101897.75;;;5.11;71.12
62791;BME280;48830;53.426;10.300;2023-04-07T05:55:29;101904.06;;;5.18;71.02
62791;BME280;48830;53.426;10.300;2023-04-07T05:57:56;101909.53;;;5.40;70.99
62791;BME280;48830;53.426;10.300;2023-04-07T06:00:25;101908.66;;;5.40;69.89
62791;BME280;48830;53.426;10.300;2023-04-07T06:03:00;101914.16;;;5.47;68.93
62791;BME280;48830;53.426;10.300;2023-04-07T06:05:28;101910.97;;;5.51;68.71
62791;BME280;48830;53.426;10.300;2023-04-07T06:07:55;101914.91;;;5.61;68.34
62791;BME280;48830;53.426;10.300;2023-04-07T06:10:24;101918.81;;;5.71;68.01
62791;BME280;48830;53.426;10.300;2023-04-07T06:12:49;101911.75;;;5.82;67.04
62791;BME280;48830;53.426;10.300;2023-04-07T06:15:15;101920.06;;;5.94;67.23
62791;BME280;48830;53.426;10.300;2023-04-07T06:17:41;101924.59;;;5.99;65.81
62791;BME280;48830;53.426;10.300;2023-04-07T06:20:10;101919.19;;;6.10;65.46
62791;BME280;48830;53.426;10.300;2023-04-07T06:22:35;101928.34;;;6.22;65.20
62791;BME280;48830;53.426;10.300;2023-04-07T06:25:01;101933.19;;;6.34;65.01
62791;BME280;48830;53.426;10.300;2023-04-07T06:27:26;101927.91;;;6.47;64.00
62791;BME280;48830;53.426;10.300;2023-04-07T06:29:53;101935.94;;;6.55;63.44
62791;BME280;48830;53.426;10.300;2023-04-07T06:32:20;101944.78;;;6.62;62.57
62791;BME280;48830;53.426;10.300;2023-04-07T06:34:45;101940.31;;;6.74;62.92
62791;BME280;48830;53.426;10.300;2023-04-07T06:37:11;101946.22;;;6.91;62.75
62791;BME280;48830;53.426;10.300;2023-04-07T06:39:37;101945.78;;;6.99;61.87
62791;BME280;48830;53.426;10.300;2023-04-07T06:42:03;101947.84;;;7.06;61.86
62791;BME280;48830;53.426;10.300;2023-04-07T06:44:34;101955.44;;;7.23;61.30
62791;BME280;48830;53.426;10.300;2023-04-07T06:46:59;101949.59;;;7.43;60.97
62791;BME280;48830;53.426;10.300;2023-04-07T06:49:25;101951.09;;;7.57;60.39
62791;BME280;48830;53.426;10.300;2023-04-07T06:51:50;101950.81;;;7.51;59.60
62791;BME280;48830;53.426;10.300;2023-04-07T06:54:16;101950.28;;;7.58;60.02
62791;BME280;48830;53.426;10.300;2023-04-07T06:56:42;101948.63;;;7.78;59.00
62791;BME280;48830;53.426;10.300;2023-04-07T06:59:08;101953.16;;;7.84;57.50
62791;BME280;48830;53.426;10.300;2023-04-07T07:01:33;101950.81;;;7.88;58.33
62791;BME280;48830;53.426;10.300;2023-04-07T07:03:59;101952.63;;;8.10;58.16
62791;BME280;48830;53.426;10.300;2023-04-07T07:06:27;101954.53;;;8.14;56.90
62791;BME280;48830;53.426;10.300;2023-04-07T07:08:53;101956.13;;;8.32;56.42
62791;BME280;48830;53.426;10.300;2023-04-07T07:11:19;101954.72;;;8.38;56.34
62791;BME280;48830;53.426;10.300;2023-04-07T07:13:45;101954.41;;;8.50;56.17
62791;BME280;48830;53.426;10.300;2023-04-07T07:16:10;101952.22;;;8.59;56.18
62791;BME280;48830;53.426;10.300;2023-04-07T07:18:37;101962.41;;;8.58;55.25
62791;BME280;48830;53.426;10.300;2023-04-07T07:21:02;101969.78;;;8.92;55.06
62791;BME280;48830;53.426;10.300;2023-04-07T07:23:28;101962.78;;;9.09;55.10
62791;BME280;48830;53.426;10.300;2023-04-07T07:25:53;101967.88;;;9.30;53.80
62791;BME280;48830;53.426;10.300;2023-04-07T07:28:19;101965.19;;;9.48;53.57
62791;BME280;48830;53.426;10.300;2023-04-07T07:30:46;101974.44;;;9.66;53.55
62791;BME280;48830;53.426;10.300;2023-04-07T07:33:11;101971.28;;;9.73;52.46
62791;BME280;48830;53.426;10.300;2023-04-07T07:35:37;101973.00;;;9.51;51.47
62791;BME280;48830;53.426;10.300;2023-04-07T07:38:03;101982.28;;;9.69;51.68
62791;BME280;48830;53.426;10.300;2023-04-07T07:40:28;101982.25;;;9.92;52.43
62791;BME280;48830;53.426;10.300;2023-04-07T07:42:53;101985.19;;;9.79;50.68
62791;BME280;48830;53.426;10.300;2023-04-07T07:45:19;101989.38;;;9.99;50.93
62791;BME280;48830;53.426;10.300;2023-04-07T07:47:45;101982.91;;;10.33;51.31
62791;BME280;48830;53.426;10.300;2023-04-07T07:50:10;101986.22;;;10.29;50.44
62791;BME280;48830;53.426;10.300;2023-04-07T07:52:36;101986.41;;;10.35;51.06
62791;BME280;48830;53.426;10.300;2023-04-07T07:55:02;101995.97;;;10.88;50.40
62791;BME280;48830;53.426;10.300;2023-04-07T07:57:27;101990.16;;;10.68;49.90
62791;BME280;48830;53.426;10.300;2023-04-07T07:59:55;101999.50;;;10.92;49.72
62791;BME280;48830;53.426;10.300;2023-04-07T08:02:20;101992.09;;;11.01;50.12
62791;BME280;48830;53.426;10.300;2023-04-07T08:04:46;101999.81;;;11.26;49.72
62791;BME280;48830;53.426;10.300;2023-04-07T08:07:11;102001.69;;;11.32;48.79
62791;BME280;48830;53.426;10.300;2023-04-07T08:09:37;102002.16;;;10.93;48.23
62791;BME280;48830;53.426;10.300;2023-04-07T08:12:02;102008.22;;;10.95;48.33
62791;BME280;48830;53.426;10.300;2023-04-07T08:14:28;102008.75;;;10.87;48.74
62791;BME280;48830;53.426;10.300;2023-04-07T08:16:54;102004.66;;;10.92;48.62
62791;BME280;48830;53.426;10.300;2023-04-07T08:19:19;102009.44;;;11.34;48.23
62791;BME280;48830;53.426;10.300;2023-04-07T08:21:45;102009.63;;;11.40;48.30
62791;BME280;48830;53.426;10.300;2023-04-07T08:24:10;102016.16;;;11.82;47.53
62791;BME280;48830;53.426;10.300;2023-04-07T08:26:36;102004.63;;;12.00;47.20
62791;BME280;48830;53.426;10.300;2023-04-07T08:29:01;102002.19;;;12.04;46.53
62791;BME280;48830;53.426;10.300;2023-04-07T08:31:27;102010.00;;;12.07;46.27
62791;BME280;48830;53.426;10.300;2023-04-07T08:33:52;102008.91;;;12.29;45.59
62791;BME280;48830;53.426;10.300;2023-04-07T08:36:25;102006.38;;;12.31;45.14
62791;BME280;48830;53.426;10.300;2023-04-07T08:38:53;102003.31;;;12.44;46.28
62791;BME280;48830;53.426;10.300;2023-04-07T08:41:39;102004.91;;;12.72;46.57
62791;BME280;48830;53.426;10.300;2023-04-07T08:44:06;102009.63;;;12.88;45.71
62791;BME280;48830;53.426;10.300;2023-04-07T08:46:32;102011.56;;;12.64;45.18
62791;BME280;48830;53.426;10.300;2023-04-07T08:48:59;102017.56;;;12.63;45.88
62791;BME280;48830;53.426;10.300;2023-04-07T08:51:29;102014.47;;;12.76;44.85
62791;BME280;48830;53.426;10.300;2023-04-07T08:54:05;102015.06;;;12.66;44.39
62791;BME280;48830;53.426;10.300;2023-04-07T08:56:32;102015.31;;;12.75;43.81
62791;BME280;48830;53.426;10.300;2023-04-07T08:59:00;102022.53;;;13.22;44.06
62791;BME280;48830;53.426;10.300;2023-04-07T09:01:26;102015.31;;;13.45;44.23
62791;BME280;48830;53.426;10.300;2023-04-07T09:03:52;102013.78;;;13.53;43.73
62791;BME280;48830;53.426;10.300;2023-04-07T09:06:17;102012.94;;;13.93;44.40
62791;BME280;48830;53.426;10.300;2023-04-07T09:08:43;102013.44;;;14.16;43.53
62791;BME280;48830;53.426;10.300;2023-04-07T09:11:08;102025.75;;;13.87;42.83
62791;BME280;48830;53.426;10.300;2023-04-07T09:13:33;102013.81;;;13.93;42.68
62791;BME280;48830;53.426;10.300;2023-04-07T09:16:00;102017.66;;;14.11;43.08
62791;BME280;48830;53.426;10.300;2023-04-07T09:18:27;102010.78;;;14.57;42.47
62791;BME280;48830;53.426;10.300;2023-04-07T09:20:56;102014.44;;;14.68;41.70
62791;BME280;48830;53.426;10.300;2023-04-07T09:23:35;102010.91;;;14.63;42.12
62791;BME280;48830;53.426;10.300;2023-04-07T09:26:24;102009.69;;;14.45;41.47
62791;BME280;48830;53.426;10.300;2023-04-07T09:28:58;102018.97;;;14.80;41.15
62791;BME280;48830;53.426;10.300;2023-04-07T09:34:27;102013.44;;;14.58;40.85
62791;BME280;48830;53.426;10.300;2023-04-07T09:36:54;102013.09;;;14.88;40.94
62791;BME280;48830;53.426;10.300;2023-04-07T09:39:20;102012.81;;;15.25;41.09
62791;BME280;48830;53.426;10.300;2023-04-07T09:41:46;102015.75;;;15.47;40.38
62791;BME280;48830;53.426;10.300;2023-04-07T09:44:12;102013.00;;;15.35;38.92
62791;BME280;48830;53.426;10.300;2023-04-07T09:46:53;102014.72;;;15.35;38.89
62791;BME280;48830;53.426;10.300;2023-04-07T09:49:20;102014.63;;;15.29;38.76
62791;BME280;48830;53.426;10.300;2023-04-07T09:51:59;102004.75;;;15.62;38.14
62791;BME280;48830;53.426;10.300;2023-04-07T09:54:37;102004.66;;;16.20;43.55
62791;BME280;48830;53.426;10.300;2023-04-07T09:57:04;102005.09;;;16.63;41.94
62791;BME280;48830;53.426;10.300;2023-04-07T09:59:31;102004.16;;;16.56;41.62
62791;BME280;48830;53.426;10.300;2023-04-07T10:01:58;102004.47;;;16.05;38.54
62791;BME280;48830;53.426;10.300;2023-04-07T10:04:24;101996.94;;;16.26;38.60
62791;BME280;48830;53.426;10.300;2023-04-07T10:06:51;101996.28;;;16.45;39.14
62791;BME280;48830;53.426;10.300;2023-04-07T10:09:19;102001.66;;;16.64;38.89
62791;BME280;48830;53.426;10.300;2023-04-07T10:11:46;102005.59;;;16.28;39.26
62791;BME280;48830;53.426;10.300;2023-04-07T10:14:13;102002.94;;;16.20;39.26
62791;BME280;48830;53.426;10.300;2023-04-07T10:16:42;101989.41;;;16.47;39.54
62791;BME280;48830;53.426;10.300;2023-04-07T10:19:08;102001.16;;;16.16;39.69
62791;BME280;48830;53.426;10.300;2023-04-07T10:21:37;102004.75;;;16.29;38.67
62791;BME280;48830;53.426;10.300;2023-04-07T10:26:34;102004.16;;;16.53;38.97
62791;BME280;48830;53.426;10.300;2023-04-07T10:29:07;101999.88;;;16.60;38.59
62791;BME280;48830;53.426;10.300;2023-04-07T10:31:36;102003.81;;;17.08;38.86
62791;BME280;48830;53.426;10.300;2023-04-07T10:34:02;101996.22;;;16.41;38.41
62791;BME280;48830;53.426;10.300;2023-04-07T10:36:27;101999.03;;;16.62;37.15
62791;BME280;48830;53.426;10.300;2023-04-07T10:41:41;101997.34;;;16.64;37.82
62791;BME280;48830;53.426;10.300;2023-04-07T10:47:07;102004.50;;;16.87;37.27
62791;BME280;48830;53.426;10.300;2023-04-07T10:49:33;102001.94;;;16.09;37.52
62791;BME280;48830;53.426;10.300;2023-04-07T10:54:37;101994.25;;;17.00;38.70
62791;BME280;48830;53.426;10.300;2023-04-07T10:57:06;101999.34;;;16.90;38.11
62791;BME280;48830;53.426;10.300;2023-04-07T10:59:34;101999.31;;;16.85;38.85
62791;BME280;48830;53.426;10.300;2023-04-07T11:04:44;101998.09;;;16.52;36.69
62791;BME280;48830;53.426;10.300;2023-04-07T11:07:10;101996.66;;;16.82;37.69
62791;BME280;48830;53.426;10.300;2023-04-07T11:09:36;101994.56;;;17.46;37.57
62791;BME280;48830;53.426;10.300;2023-04-07T11:12:02;101989.13;;;17.16;36.80
62791;BME280;48830;53.426;10.300;2023-04-07T11:14:29;101992.88;;;17.57;36.68
62791;BME280;48830;53.426;10.300;2023-04-07T11:16:56;101995.75;;;16.74;36.14
62791;BME280;48830;53.426;10.300;2023-04-07T11:19:22;101995.53;;;17.68;37.34
62791;BME280;48830;53.426;10.300;2023-04-07T11:21:48;101996.47;;;17.73;35.98
62791;BME280;48830;53.426;10.300;2023-04-07T11:24:33;101995.72;;;18.00;35.45
62791;BME280;48830;53.426;10.300;2023-04-07T11:26:59;101999.34;;;18.42;35.92
62791;BME280;48830;53.426;10.300;2023-04-07T11:29:29;101995.94;;;18.72;35.86
62791;BME280;48830;53.426;10.300;2023-04-07T11:31:57;101993.94;;;17.87;36.24
62791;BME280;48830;53.426;10.300;2023-04-07T11:34:29;102004.38;;;17.95;35.96
62791;BME280;48830;53.426;10.300;2023-04-07T11:36:55;101997.88;;;17.22;35.41
62791;BME280;48830;53.426;10.300;2023-04-07T11:39:25;101994.88;;;18.04;35.70
62791;BME280;48830;53.426;10.300;2023-04-07T11:41:56;101995.00;;;18.35;35.01
62791;BME280;48830;53.426;10.300;2023-04-07T11:44:22;102001.09;;;18.46;34.40
62791;BME280;48830;53.426;10.300;2023-04-07T11:46:57;101989.78;;;18.49;35.12
62791;BME280;48830;53.426;10.300;2023-04-07T11:49:24;101991.59;;;18.77;35.63
62791;BME280;48830;53.426;10.300;2023-04-07T11:52:00;101997.69;;;19.16;34.82
62791;BME280;48830;53.426;10.300;2023-04-07T11:54:26;101998.34;;;18.08;34.77
62791;BME280;48830;53.426;10.300;2023-04-07T11:56:52;102001.09;;;18.61;35.01
62791;BME280;48830;53.426;10.300;2023-04-07T11:59:24;102004.63;;;18.76;34.56
62791;BME280;48830;53.426;10.300;2023-04-07T12:01:51;101994.09;;;18.34;34.87
62791;BME280;48830;53.426;10.300;2023-04-07T12:04:17;101993.25;;;18.37;34.30
62791;BME280;48830;53.426;10.300;2023-04-07T12:06:44;102002.81;;;18.53;34.19
62791;BME280;48830;53.426;10.300;2023-04-07T12:11:55;102008.03;;;18.59;33.52
62791;BME280;48830;53.426;10.300;2023-04-07T12:14:21;102013.22;;;18.56;34.52
62791;BME280;48830;53.426;10.300;2023-04-07T12:16:47;102012.44;;;18.79;34.68
62791;BME280;48830;53.426;10.300;2023-04-07T12:19:12;102003.75;;;18.75;33.65
62791;BME280;48830;53.426;10.300;2023-04-07T12:21:37;102003.75;;;19.13;33.54
62791;BME280;48830;53.426;10.300;2023-04-07T12:24:03;102005.47;;;19.34;34.52
62791;BME280;48830;53.426;10.300;2023-04-07T12:26:28;102004.63;;;18.88;33.85
62791;BME280;48830;53.426;10.300;2023-04-07T12:28:54;102008.97;;;19.18;35.29
62791;BME280;48830;53.426;10.300;2023-04-07T12:31:20;102011.59;;;18.86;35.78
62791;BME280;48830;53.426;10.300;2023-04-07T12:33:46;102004.63;;;19.09;34.44
62791;BME280;48830;53.426;10.300;2023-04-07T12:36:11;102008.09;;;19.30;33.26
62791;BME280;48830;53.426;10.300;2023-04-07T12:38:37;102007.22;;;19.20;35.14
62791;BME280;48830;53.426;10.300;2023-04-07T12:41:02;102008.06;;;19.70;35.23
62791;BME280;48830;53.426;10.300;2023-04-07T12:43:31;101997.63;;;19.54;32.88
62791;BME280;48830;53.426;10.300;2023-04-07T12:45:57;102007.22;;;19.09;33.62
62791;BME280;48830;53.426;10.300;2023-04-07T12:48:23;102007.22;;;19.05;33.16
62791;BME280;48830;53.426;10.300;2023-04-07T12:50:48;102008.03;;;18.55;34.24
62791;BME280;48830;53.426;10.300;2023-04-07T12:53:14;102009.84;;;18.99;34.57
62791;BME280;48830;53.426;10.300;2023-04-07T12:55:39;102002.88;;;19.14;35.57
62791;BME280;48830;53.426;10.300;2023-04-07T12:58:06;102009.84;;;19.09;34.94
62791;BME280;48830;53.426;10.300;2023-04-07T13:00:32;102002.00;;;19.20;34.88
62791;BME280;48830;53.426;10.300;2023-04-07T13:02:59;102006.28;;;18.61;33.52
62791;BME280;48830;53.426;10.300;2023-04-07T13:05:24;102009.81;;;19.37;34.53
62791;BME280;48830;53.426;10.300;2023-04-07T13:07:49;102000.25;;;18.64;32.26
62791;BME280;48830;53.426;10.300;2023-04-07T13:10:15;102003.75;;;18.92;32.73